Terminal Aerodrome Forecast
Issued by NWS

Home | Current Version | Previous Version | Text Only | Print | Product List | Glossary On
Versions: 1 2 3 4 5 6 7 8 9 10 11 12 13 14 15 16
222
FTUS46 KHNX 061139 RRA
TAFMCE
TAF
KMCE 061139Z 0612/0712 00000KT 1/4SM FG BKN005 BKN040
      TEMPO 0612/0616 1SM BR SCT040 SCT120
     FM061600 VRB03KT 1 1/2SM BR SCT250
     FM061900 33009KT 4SM HZ SCT250
     FM070400 34004KT 2SM BR SKC=

USA.gov is the U.S. government's official web portal to all federal, state and local government web resources and services.